sensor_id;sensor_type;location;lat;lon;timestamp;P1;durP1;ratioP1;P2;durP2;ratioP2
17606;SDS011;8922;52.240;20.980;2022-08-16T00:02:16;11.70;;;10.60;;
17606;SDS011;8922;52.240;20.980;2022-08-16T00:04:43;15.00;;;10.55;;
17606;SDS011;8922;52.240;20.980;2022-08-16T00:07:10;13.32;;;10.77;;
17606;SDS011;8922;52.240;20.980;2022-08-16T00:09:36;14.55;;;10.57;;
17606;SDS011;8922;52.240;20.980;2022-08-16T00:12:04;10.98;;;9.88;;
17606;SDS011;8922;52.240;20.980;2022-08-16T00:14:31;11.73;;;10.20;;
17606;SDS011;8922;52.240;20.980;2022-08-16T00:17:00;11.65;;;10.55;;
17606;SDS011;8922;52.240;20.980;2022-08-16T00:19:28;11.02;;;10.02;;
17606;SDS011;8922;52.240;20.980;2022-08-16T00:21:56;12.02;;;10.60;;
17606;SDS011;8922;52.240;20.980;2022-08-16T00:24:24;11.27;;;10.18;;
17606;SDS011;8922;52.240;20.980;2022-08-16T00:26:51;13.07;;;10.13;;
17606;SDS011;8922;52.240;20.980;2022-08-16T00:29:19;13.43;;;10.02;;
17606;SDS011;8922;52.240;20.980;2022-08-16T00:31:47;11.00;;;9.80;;
17606;SDS011;8922;52.240;20.980;2022-08-16T00:34:17;13.27;;;10.23;;
17606;SDS011;8922;52.240;20.980;2022-08-16T00:36:44;11.50;;;10.40;;
17606;SDS011;8922;52.240;20.980;2022-08-16T00:39:11;10.90;;;9.75;;
17606;SDS011;8922;52.240;20.980;2022-08-16T00:41:38;11.82;;;10.32;;
17606;SDS011;8922;52.240;20.980;2022-08-16T00:44:06;11.75;;;10.45;;
17606;SDS011;8922;52.240;20.980;2022-08-16T00:46:36;10.80;;;9.77;;
17606;SDS011;8922;52.240;20.980;2022-08-16T00:49:09;10.52;;;9.52;;
17606;SDS011;8922;52.240;20.980;2022-08-16T00:51:39;10.45;;;9.10;;
17606;SDS011;8922;52.240;20.980;2022-08-16T00:54:07;11.02;;;9.48;;
17606;SDS011;8922;52.240;20.980;2022-08-16T00:56:35;13.23;;;10.32;;
17606;SDS011;8922;52.240;20.980;2022-08-16T00:59:04;11.00;;;9.25;;
17606;SDS011;8922;52.240;20.980;2022-08-16T01:01:32;14.82;;;10.02;;
17606;SDS011;8922;52.240;20.980;2022-08-16T01:03:59;10.73;;;9.73;;
17606;SDS011;8922;52.240;20.980;2022-08-16T01:06:26;10.45;;;9.35;;
17606;SDS011;8922;52.240;20.980;2022-08-16T01:08:55;11.35;;;9.15;;
17606;SDS011;8922;52.240;20.980;2022-08-16T01:11:24;10.00;;;9.10;;
17606;SDS011;8922;52.240;20.980;2022-08-16T01:13:52;11.10;;;9.57;;
17606;SDS011;8922;52.240;20.980;2022-08-16T01:16:25;11.38;;;9.73;;
17606;SDS011;8922;52.240;20.980;2022-08-16T01:18:54;9.00;;;8.10;;
17606;SDS011;8922;52.240;20.980;2022-08-16T01:21:25;11.00;;;9.18;;
17606;SDS011;8922;52.240;20.980;2022-08-16T01:26:48;11.75;;;9.70;;
17606;SDS011;8922;52.240;20.980;2022-08-16T01:29:18;10.07;;;9.07;;
17606;SDS011;8922;52.240;20.980;2022-08-16T01:31:48;10.27;;;8.85;;
17606;SDS011;8922;52.240;20.980;2022-08-16T01:34:16;10.48;;;9.43;;
17606;SDS011;8922;52.240;20.980;2022-08-16T01:36:44;10.43;;;9.25;;
17606;SDS011;8922;52.240;20.980;2022-08-16T01:39:12;10.70;;;9.48;;
17606;SDS011;8922;52.240;20.980;2022-08-16T01:41:43;10.50;;;9.50;;
17606;SDS011;8922;52.240;20.980;2022-08-16T01:44:11;10.98;;;8.95;;
17606;SDS011;8922;52.240;20.980;2022-08-16T01:46:39;12.93;;;10.05;;
17606;SDS011;8922;52.240;20.980;2022-08-16T01:49:09;13.00;;;11.57;;
17606;SDS011;8922;52.240;20.980;2022-08-16T01:51:39;10.07;;;9.10;;
17606;SDS011;8922;52.240;20.980;2022-08-16T01:54:07;13.90;;;9.55;;
17606;SDS011;8922;52.240;20.980;2022-08-16T01:56:34;10.93;;;9.32;;
17606;SDS011;8922;52.240;20.980;2022-08-16T01:59:06;9.93;;;8.80;;
17606;SDS011;8922;52.240;20.980;2022-08-16T02:01:35;9.60;;;8.60;;
17606;SDS011;8922;52.240;20.980;2022-08-16T02:04:02;11.20;;;10.13;;
17606;SDS011;8922;52.240;20.980;2022-08-16T02:06:29;11.10;;;10.10;;
17606;SDS011;8922;52.240;20.980;2022-08-16T02:08:58;10.82;;;9.15;;
17606;SDS011;8922;52.240;20.980;2022-08-16T02:11:25;13.32;;;9.65;;
17606;SDS011;8922;52.240;20.980;2022-08-16T02:13:53;11.15;;;9.43;;
17606;SDS011;8922;52.240;20.980;2022-08-16T02:16:21;11.65;;;9.50;;
17606;SDS011;8922;52.240;20.980;2022-08-16T02:18:48;10.23;;;9.15;;
17606;SDS011;8922;52.240;20.980;2022-08-16T02:21:15;11.05;;;9.88;;
17606;SDS011;8922;52.240;20.980;2022-08-16T02:23:42;13.85;;;9.77;;
17606;SDS011;8922;52.240;20.980;2022-08-16T02:26:10;11.05;;;9.15;;
17606;SDS011;8922;52.240;20.980;2022-08-16T02:28:39;10.57;;;8.98;;
17606;SDS011;8922;52.240;20.980;2022-08-16T02:31:07;10.68;;;9.68;;
17606;SDS011;8922;52.240;20.980;2022-08-16T02:33:37;9.70;;;8.90;;
17606;SDS011;8922;52.240;20.980;2022-08-16T02:36:04;10.75;;;9.02;;
17606;SDS011;8922;52.240;20.980;2022-08-16T02:38:32;13.25;;;9.80;;
17606;SDS011;8922;52.240;20.980;2022-08-16T02:41:00;13.05;;;10.27;;
17606;SDS011;8922;52.240;20.980;2022-08-16T02:43:29;11.15;;;9.65;;
17606;SDS011;8922;52.240;20.980;2022-08-16T02:45:58;10.45;;;9.45;;
17606;SDS011;8922;52.240;20.980;2022-08-16T02:48:25;10.23;;;9.20;;
17606;SDS011;8922;52.240;20.980;2022-08-16T02:50:56;12.93;;;9.73;;
17606;SDS011;8922;52.240;20.980;2022-08-16T02:53:24;10.75;;;9.30;;
17606;SDS011;8922;52.240;20.980;2022-08-16T02:55:50;10.65;;;9.57;;
17606;SDS011;8922;52.240;20.980;2022-08-16T02:58:18;11.00;;;10.00;;
17606;SDS011;8922;52.240;20.980;2022-08-16T03:00:46;10.00;;;9.10;;
17606;SDS011;8922;52.240;20.980;2022-08-16T03:03:12;9.68;;;8.50;;
17606;SDS011;8922;52.240;20.980;2022-08-16T03:05:39;10.10;;;9.10;;
17606;SDS011;8922;52.240;20.980;2022-08-16T03:08:07;10.30;;;9.13;;
17606;SDS011;8922;52.240;20.980;2022-08-16T03:10:34;11.25;;;10.15;;
17606;SDS011;8922;52.240;20.980;2022-08-16T03:13:02;11.30;;;10.30;;
17606;SDS011;8922;52.240;20.980;2022-08-16T03:15:29;11.82;;;10.13;;
17606;SDS011;8922;52.240;20.980;2022-08-16T03:17:56;12.88;;;9.98;;
17606;SDS011;8922;52.240;20.980;2022-08-16T03:20:23;11.82;;;10.35;;
17606;SDS011;8922;52.240;20.980;2022-08-16T03:22:50;11.15;;;9.95;;
17606;SDS011;8922;52.240;20.980;2022-08-16T03:25:18;10.90;;;9.93;;
17606;SDS011;8922;52.240;20.980;2022-08-16T03:27:45;11.98;;;10.25;;
17606;SDS011;8922;52.240;20.980;2022-08-16T03:30:13;12.07;;;10.35;;
17606;SDS011;8922;52.240;20.980;2022-08-16T03:32:41;11.77;;;9.55;;
17606;SDS011;8922;52.240;20.980;2022-08-16T03:35:08;11.43;;;10.32;;
17606;SDS011;8922;52.240;20.980;2022-08-16T03:37:35;13.98;;;10.70;;
17606;SDS011;8922;52.240;20.980;2022-08-16T03:40:07;10.70;;;9.60;;
17606;SDS011;8922;52.240;20.980;2022-08-16T03:42:36;11.52;;;10.40;;
17606;SDS011;8922;52.240;20.980;2022-08-16T03:45:03;11.30;;;10.30;;
17606;SDS011;8922;52.240;20.980;2022-08-16T03:47:31;12.18;;;10.05;;
17606;SDS011;8922;52.240;20.980;2022-08-16T03:49:58;11.70;;;10.48;;
17606;SDS011;8922;52.240;20.980;2022-08-16T03:52:26;13.65;;;10.18;;
17606;SDS011;8922;52.240;20.980;2022-08-16T03:54:53;11.00;;;9.90;;
17606;SDS011;8922;52.240;20.980;2022-08-16T03:57:19;14.52;;;11.13;;
17606;SDS011;8922;52.240;20.980;2022-08-16T03:59:48;11.18;;;10.18;;
17606;SDS011;8922;52.240;20.980;2022-08-16T04:02:14;11.23;;;9.88;;
17606;SDS011;8922;52.240;20.980;2022-08-16T04:04:43;13.07;;;10.90;;
17606;SDS011;8922;52.240;20.980;2022-08-16T04:07:10;10.85;;;9.88;;
17606;SDS011;8922;52.240;20.980;2022-08-16T04:09:37;13.45;;;10.32;;
17606;SDS011;8922;52.240;20.980;2022-08-16T04:12:04;14.68;;;11.05;;
17606;SDS011;8922;52.240;20.980;2022-08-16T04:14:33;11.13;;;9.98;;
17606;SDS011;8922;52.240;20.980;2022-08-16T04:17:01;12.60;;;10.48;;
17606;SDS011;8922;52.240;20.980;2022-08-16T04:19:28;12.20;;;11.00;;
17606;SDS011;8922;52.240;20.980;2022-08-16T04:21:58;10.75;;;9.65;;
17606;SDS011;8922;52.240;20.980;2022-08-16T04:24:24;15.10;;;10.90;;
17606;SDS011;8922;52.240;20.980;2022-08-16T04:26:51;12.10;;;10.70;;
17606;SDS011;8922;52.240;20.980;2022-08-16T04:29:18;11.93;;;9.77;;
17606;SDS011;8922;52.240;20.980;2022-08-16T04:31:45;13.45;;;10.15;;
17606;SDS011;8922;52.240;20.980;2022-08-16T04:34:14;14.20;;;11.23;;
17606;SDS011;8922;52.240;20.980;2022-08-16T04:36:40;11.15;;;10.05;;
17606;SDS011;8922;52.240;20.980;2022-08-16T04:39:07;14.60;;;10.07;;
17606;SDS011;8922;52.240;20.980;2022-08-16T04:41:34;12.05;;;10.73;;
17606;SDS011;8922;52.240;20.980;2022-08-16T04:44:01;11.38;;;10.27;;
17606;SDS011;8922;52.240;20.980;2022-08-16T04:46:28;14.65;;;10.48;;
17606;SDS011;8922;52.240;20.980;2022-08-16T04:48:55;11.70;;;10.57;;
17606;SDS011;8922;52.240;20.980;2022-08-16T04:51:23;10.90;;;9.63;;
17606;SDS011;8922;52.240;20.980;2022-08-16T04:53:49;14.77;;;9.85;;
17606;SDS011;8922;52.240;20.980;2022-08-16T04:56:17;10.40;;;9.32;;
17606;SDS011;8922;52.240;20.980;2022-08-16T04:58:45;11.10;;;9.82;;
17606;SDS011;8922;52.240;20.980;2022-08-16T05:01:11;11.63;;;10.30;;
17606;SDS011;8922;52.240;20.980;2022-08-16T05:03:38;10.88;;;9.43;;
17606;SDS011;8922;52.240;20.980;2022-08-16T05:06:05;13.50;;;10.57;;
17606;SDS011;8922;52.240;20.980;2022-08-16T05:08:33;10.90;;;9.80;;
17606;SDS011;8922;52.240;20.980;2022-08-16T05:11:01;10.63;;;9.63;;
17606;SDS011;8922;52.240;20.980;2022-08-16T05:13:29;10.07;;;9.07;;
17606;SDS011;8922;52.240;20.980;2022-08-16T05:15:56;11.43;;;10.00;;
17606;SDS011;8922;52.240;20.980;2022-08-16T05:18:23;10.82;;;9.80;;
17606;SDS011;8922;52.240;20.980;2022-08-16T05:20:50;10.63;;;9.27;;
17606;SDS011;8922;52.240;20.980;2022-08-16T05:23:16;10.50;;;9.20;;
17606;SDS011;8922;52.240;20.980;2022-08-16T05:25:44;11.75;;;9.75;;
17606;SDS011;8922;52.240;20.980;2022-08-16T05:28:11;12.98;;;9.63;;
17606;SDS011;8922;52.240;20.980;2022-08-16T05:30:38;10.10;;;9.02;;
17606;SDS011;8922;52.240;20.980;2022-08-16T05:33:05;12.68;;;9.45;;
17606;SDS011;8922;52.240;20.980;2022-08-16T05:35:32;11.35;;;9.23;;
17606;SDS011;8922;52.240;20.980;2022-08-16T05:37:59;10.27;;;9.25;;
17606;SDS011;8922;52.240;20.980;2022-08-16T05:40:26;10.15;;;8.82;;
17606;SDS011;8922;52.240;20.980;2022-08-16T05:42:54;12.90;;;9.15;;
17606;SDS011;8922;52.240;20.980;2022-08-16T05:45:21;12.70;;;8.85;;
17606;SDS011;8922;52.240;20.980;2022-08-16T05:47:48;12.02;;;8.90;;
17606;SDS011;8922;52.240;20.980;2022-08-16T05:50:15;13.73;;;9.80;;
17606;SDS011;8922;52.240;20.980;2022-08-16T05:52:41;12.25;;;9.52;;
17606;SDS011;8922;52.240;20.980;2022-08-16T05:55:08;13.30;;;9.45;;
17606;SDS011;8922;52.240;20.980;2022-08-16T05:57:35;12.32;;;8.95;;
17606;SDS011;8922;52.240;20.980;2022-08-16T06:00:05;13.40;;;9.02;;
17606;SDS011;8922;52.240;20.980;2022-08-16T06:02:34;10.63;;;8.90;;
17606;SDS011;8922;52.240;20.980;2022-08-16T06:05:00;13.50;;;8.45;;
17606;SDS011;8922;52.240;20.980;2022-08-16T06:07:28;10.88;;;9.23;;
17606;SDS011;8922;52.240;20.980;2022-08-16T06:09:55;9.52;;;8.05;;
17606;SDS011;8922;52.240;20.980;2022-08-16T06:12:23;9.32;;;8.38;;
17606;SDS011;8922;52.240;20.980;2022-08-16T06:14:50;11.25;;;8.50;;
17606;SDS011;8922;52.240;20.980;2022-08-16T06:17:18;9.82;;;8.82;;
17606;SDS011;8922;52.240;20.980;2022-08-16T06:19:47;9.55;;;8.15;;
17606;SDS011;8922;52.240;20.980;2022-08-16T06:22:14;12.48;;;9.10;;
17606;SDS011;8922;52.240;20.980;2022-08-16T06:24:40;11.57;;;8.18;;
17606;SDS011;8922;52.240;20.980;2022-08-16T06:27:08;12.32;;;8.85;;
17606;SDS011;8922;52.240;20.980;2022-08-16T06:29:35;10.07;;;8.27;;
17606;SDS011;8922;52.240;20.980;2022-08-16T06:32:02;12.25;;;9.23;;
17606;SDS011;8922;52.240;20.980;2022-08-16T06:34:31;17.25;;;8.60;;
17606;SDS011;8922;52.240;20.980;2022-08-16T06:36:59;9.55;;;8.48;;
17606;SDS011;8922;52.240;20.980;2022-08-16T06:39:26;9.10;;;8.15;;
17606;SDS011;8922;52.240;20.980;2022-08-16T06:41:53;13.25;;;8.35;;
17606;SDS011;8922;52.240;20.980;2022-08-16T06:44:20;10.20;;;8.52;;
17606;SDS011;8922;52.240;20.980;2022-08-16T06:46:47;12.85;;;8.30;;
17606;SDS011;8922;52.240;20.980;2022-08-16T06:49:14;11.13;;;8.45;;
17606;SDS011;8922;52.240;20.980;2022-08-16T06:51:43;10.50;;;8.68;;
17606;SDS011;8922;52.240;20.980;2022-08-16T06:54:09;9.85;;;8.85;;
17606;SDS011;8922;52.240;20.980;2022-08-16T06:56:36;10.00;;;8.63;;
17606;SDS011;8922;52.240;20.980;2022-08-16T06:59:03;13.55;;;9.15;;
17606;SDS011;8922;52.240;20.980;2022-08-16T07:01:30;15.75;;;9.05;;
17606;SDS011;8922;52.240;20.980;2022-08-16T07:03:57;10.20;;;8.07;;
17606;SDS011;8922;52.240;20.980;2022-08-16T07:06:24;9.20;;;8.30;;
17606;SDS011;8922;52.240;20.980;2022-08-16T07:08:53;9.00;;;8.10;;
17606;SDS011;8922;52.240;20.980;2022-08-16T07:11:20;9.27;;;8.15;;
17606;SDS011;8922;52.240;20.980;2022-08-16T07:13:47;10.43;;;9.35;;
17606;SDS011;8922;52.240;20.980;2022-08-16T07:16:15;9.88;;;8.63;;
17606;SDS011;8922;52.240;20.980;2022-08-16T07:18:42;10.82;;;8.38;;
17606;SDS011;8922;52.240;20.980;2022-08-16T07:21:09;17.50;;;8.90;;
17606;SDS011;8922;52.240;20.980;2022-08-16T07:23:37;10.43;;;8.48;;
17606;SDS011;8922;52.240;20.980;2022-08-16T07:26:05;10.15;;;7.90;;
17606;SDS011;8922;52.240;20.980;2022-08-16T07:28:34;8.80;;;7.95;;
17606;SDS011;8922;52.240;20.980;2022-08-16T07:31:02;14.27;;;8.55;;
17606;SDS011;8922;52.240;20.980;2022-08-16T07:33:29;10.23;;;7.55;;
17606;SDS011;8922;52.240;20.980;2022-08-16T07:35:56;10.65;;;8.27;;
17606;SDS011;8922;52.240;20.980;2022-08-16T07:38:23;12.88;;;8.75;;
17606;SDS011;8922;52.240;20.980;2022-08-16T07:40:51;14.23;;;8.85;;
17606;SDS011;8922;52.240;20.980;2022-08-16T07:43:20;9.63;;;8.63;;
17606;SDS011;8922;52.240;20.980;2022-08-16T07:45:47;11.85;;;8.05;;
17606;SDS011;8922;52.240;20.980;2022-08-16T07:48:14;10.68;;;9.15;;
17606;SDS011;8922;52.240;20.980;2022-08-16T07:50:41;9.57;;;7.78;;
17606;SDS011;8922;52.240;20.980;2022-08-16T07:53:08;10.50;;;8.80;;
17606;SDS011;8922;52.240;20.980;2022-08-16T07:55:36;10.77;;;8.85;;
17606;SDS011;8922;52.240;20.980;2022-08-16T07:58:03;10.95;;;8.57;;
17606;SDS011;8922;52.240;20.980;2022-08-16T08:00:32;10.75;;;8.00;;
17606;SDS011;8922;52.240;20.980;2022-08-16T08:02:59;11.65;;;8.75;;
17606;SDS011;8922;52.240;20.980;2022-08-16T08:05:27;12.93;;;8.88;;
17606;SDS011;8922;52.240;20.980;2022-08-16T08:07:54;8.38;;;7.57;;
17606;SDS011;8922;52.240;20.980;2022-08-16T08:10:21;10.65;;;7.40;;
17606;SDS011;8922;52.240;20.980;2022-08-16T08:12:49;11.68;;;7.40;;
17606;SDS011;8922;52.240;20.980;2022-08-16T08:15:18;9.00;;;7.57;;
17606;SDS011;8922;52.240;20.980;2022-08-16T08:17:48;10.90;;;7.90;;
17606;SDS011;8922;52.240;20.980;2022-08-16T08:20:16;9.15;;;7.35;;
17606;SDS011;8922;52.240;20.980;2022-08-16T08:22:47;8.23;;;6.72;;
17606;SDS011;8922;52.240;20.980;2022-08-16T08:25:15;10.75;;;7.75;;
17606;SDS011;8922;52.240;20.980;2022-08-16T08:27:42;14.98;;;7.78;;
17606;SDS011;8922;52.240;20.980;2022-08-16T08:30:09;8.20;;;7.30;;
17606;SDS011;8922;52.240;20.980;2022-08-16T08:32:37;14.90;;;7.68;;
17606;SDS011;8922;52.240;20.980;2022-08-16T08:35:05;11.20;;;6.97;;
17606;SDS011;8922;52.240;20.980;2022-08-16T08:37:33;10.98;;;7.28;;
17606;SDS011;8922;52.240;20.980;2022-08-16T08:40:02;9.20;;;7.07;;
17606;SDS011;8922;52.240;20.980;2022-08-16T08:42:29;9.55;;;7.25;;
17606;SDS011;8922;52.240;20.980;2022-08-16T08:44:56;10.88;;;7.53;;
17606;SDS011;8922;52.240;20.980;2022-08-16T08:47:22;11.45;;;7.90;;
17606;SDS011;8922;52.240;20.980;2022-08-16T08:49:49;8.60;;;7.60;;
17606;SDS011;8922;52.240;20.980;2022-08-16T08:52:18;9.15;;;7.63;;
17606;SDS011;8922;52.240;20.980;2022-08-16T08:54:44;9.00;;;7.38;;
17606;SDS011;8922;52.240;20.980;2022-08-16T08:57:11;11.13;;;8.05;;
17606;SDS011;8922;52.240;20.980;2022-08-16T08:59:38;8.63;;;7.78;;
17606;SDS011;8922;52.240;20.980;2022-08-16T09:02:05;10.75;;;8.10;;
17606;SDS011;8922;52.240;20.980;2022-08-16T09:04:33;9.52;;;8.13;;
17606;SDS011;8922;52.240;20.980;2022-08-16T09:07:00;12.20;;;7.55;;
17606;SDS011;8922;52.240;20.980;2022-08-16T09:09:29;10.02;;;7.20;;
17606;SDS011;8922;52.240;20.980;2022-08-16T09:11:56;9.68;;;8.00;;
17606;SDS011;8922;52.240;20.980;2022-08-16T09:14:23;8.85;;;7.65;;
17606;SDS011;8922;52.240;20.980;2022-08-16T09:16:50;9.50;;;7.53;;
17606;SDS011;8922;52.240;20.980;2022-08-16T09:19:17;9.75;;;7.65;;
17606;SDS011;8922;52.240;20.980;2022-08-16T09:21:44;9.43;;;7.03;;
17606;SDS011;8922;52.240;20.980;2022-08-16T09:24:13;10.20;;;7.35;;
17606;SDS011;8922;52.240;20.980;2022-08-16T09:26:41;13.10;;;7.30;;
17606;SDS011;8922;52.240;20.980;2022-08-16T09:29:08;10.43;;;7.57;;
17606;SDS011;8922;52.240;20.980;2022-08-16T09:31:35;8.88;;;7.03;;
17606;SDS011;8922;52.240;20.980;2022-08-16T09:34:02;7.80;;;7.00;;
17606;SDS011;8922;52.240;20.980;2022-08-16T09:36:29;10.70;;;6.72;;
17606;SDS011;8922;52.240;20.980;2022-08-16T09:38:56;10.88;;;6.55;;
17606;SDS011;8922;52.240;20.980;2022-08-16T09:41:25;8.85;;;7.70;;
17606;SDS011;8922;52.240;20.980;2022-08-16T09:43:53;7.50;;;6.75;;
17606;SDS011;8922;52.240;20.980;2022-08-16T09:46:20;12.98;;;6.57;;
17606;SDS011;8922;52.240;20.980;2022-08-16T09:48:48;7.95;;;7.05;;
17606;SDS011;8922;52.240;20.980;2022-08-16T09:51:17;9.52;;;6.35;;
17606;SDS011;8922;52.240;20.980;2022-08-16T09:53:44;7.88;;;7.03;;
17606;SDS011;8922;52.240;20.980;2022-08-16T09:56:14;7.37;;;6.53;;
17606;SDS011;8922;52.240;20.980;2022-08-16T09:58:45;8.02;;;6.80;;
17606;SDS011;8922;52.240;20.980;2022-08-16T10:01:13;8.20;;;6.18;;
17606;SDS011;8922;52.240;20.980;2022-08-16T10:03:40;6.82;;;6.15;;
17606;SDS011;8922;52.240;20.980;2022-08-16T10:06:07;10.60;;;6.45;;
17606;SDS011;8922;52.240;20.980;2022-08-16T10:08:34;6.68;;;5.97;;
17606;SDS011;8922;52.240;20.980;2022-08-16T10:11:00;6.63;;;5.93;;
17606;SDS011;8922;52.240;20.980;2022-08-16T10:13:44;7.25;;;6.40;;
17606;SDS011;8922;52.240;20.980;2022-08-16T10:16:11;8.98;;;6.70;;
17606;SDS011;8922;52.240;20.980;2022-08-16T10:18:40;8.55;;;6.80;;
17606;SDS011;8922;52.240;20.980;2022-08-16T10:21:07;8.95;;;7.47;;
17606;SDS011;8922;52.240;20.980;2022-08-16T10:23:34;14.30;;;7.47;;
17606;SDS011;8922;52.240;20.980;2022-08-16T10:26:01;10.30;;;7.68;;
17606;SDS011;8922;52.240;20.980;2022-08-16T10:28:28;9.32;;;7.50;;
17606;SDS011;8922;52.240;20.980;2022-08-16T10:30:56;11.80;;;7.20;;
17606;SDS011;8922;52.240;20.980;2022-08-16T10:33:24;6.90;;;6.20;;
17606;SDS011;8922;52.240;20.980;2022-08-16T10:35:52;8.20;;;7.40;;
17606;SDS011;8922;52.240;20.980;2022-08-16T10:38:19;9.02;;;7.20;;
17606;SDS011;8922;52.240;20.980;2022-08-16T10:40:46;7.40;;;6.57;;
17606;SDS011;8922;52.240;20.980;2022-08-16T10:43:13;7.88;;;7.00;;
17606;SDS011;8922;52.240;20.980;2022-08-16T10:45:40;7.25;;;6.53;;
17606;SDS011;8922;52.240;20.980;2022-08-16T10:48:07;9.52;;;7.13;;
17606;SDS011;8922;52.240;20.980;2022-08-16T10:50:37;10.57;;;6.65;;
17606;SDS011;8922;52.240;20.980;2022-08-16T10:53:06;6.63;;;5.80;;
17606;SDS011;8922;52.240;20.980;2022-08-16T10:55:33;6.85;;;5.35;;
17606;SDS011;8922;52.240;20.980;2022-08-16T10:58:02;7.85;;;5.53;;
17606;SDS011;8922;52.240;20.980;2022-08-16T11:00:30;7.55;;;5.88;;
17606;SDS011;8922;52.240;20.980;2022-08-16T11:02:58;8.48;;;6.25;;
17606;SDS011;8922;52.240;20.980;2022-08-16T11:05:26;7.95;;;6.35;;
17606;SDS011;8922;52.240;20.980;2022-08-16T11:07:54;9.05;;;5.93;;
17606;SDS011;8922;52.240;20.980;2022-08-16T11:10:22;9.57;;;5.93;;
17606;SDS011;8922;52.240;20.980;2022-08-16T11:12:50;8.07;;;5.78;;
17606;SDS011;8922;52.240;20.980;2022-08-16T11:15:17;10.35;;;5.50;;
17606;SDS011;8922;52.240;20.980;2022-08-16T11:17:44;7.93;;;5.82;;
17606;SDS011;8922;52.240;20.980;2022-08-16T11:20:12;8.82;;;5.80;;
17606;SDS011;8922;52.240;20.980;2022-08-16T11:22:41;7.32;;;6.53;;
17606;SDS011;8922;52.240;20.980;2022-08-16T11:25:10;11.32;;;6.88;;
17606;SDS011;8922;52.240;20.980;2022-08-16T11:27:37;6.72;;;6.10;;
17606;SDS011;8922;52.240;20.980;2022-08-16T11:30:04;7.82;;;7.13;;
17606;SDS011;8922;52.240;20.980;2022-08-16T11:32:33;8.68;;;7.65;;
17606;SDS011;8922;52.240;20.980;2022-08-16T11:35:01;8.82;;;7.22;;
17606;SDS011;8922;52.240;20.980;2022-08-16T11:37:30;7.53;;;6.80;;
17606;SDS011;8922;52.240;20.980;2022-08-16T11:39:58;7.70;;;7.00;;
17606;SDS011;8922;52.240;20.980;2022-08-16T11:42:26;10.18;;;7.85;;
17606;SDS011;8922;52.240;20.980;2022-08-16T11:44:53;10.85;;;7.68;;
17606;SDS011;8922;52.240;20.980;2022-08-16T11:47:20;7.75;;;6.93;;
17606;SDS011;8922;52.240;20.980;2022-08-16T11:49:47;8.93;;;7.93;;
17606;SDS011;8922;52.240;20.980;2022-08-16T11:52:13;12.20;;;7.63;;
17606;SDS011;8922;52.240;20.980;2022-08-16T11:54:41;7.78;;;6.82;;
17606;SDS011;8922;52.240;20.980;2022-08-16T11:57:08;8.98;;;7.40;;
17606;SDS011;8922;52.240;20.980;2022-08-16T11:59:37;7.90;;;7.15;;
17606;SDS011;8922;52.240;20.980;2022-08-16T12:02:04;8.27;;;7.50;;
17606;SDS011;8922;52.240;20.980;2022-08-16T12:04:32;9.57;;;7.60;;
17606;SDS011;8922;52.240;20.980;2022-08-16T12:06:59;7.82;;;7.05;;
17606;SDS011;8922;52.240;20.980;2022-08-16T12:09:26;7.07;;;6.22;;
17606;SDS011;8922;52.240;20.980;2022-08-16T12:11:54;7.68;;;6.25;;
17606;SDS011;8922;52.240;20.980;2022-08-16T12:14:21;9.23;;;6.10;;
17606;SDS011;8922;52.240;20.980;2022-08-16T12:16:49;8.18;;;6.70;;
17606;SDS011;8922;52.240;20.980;2022-08-16T12:19:16;10.68;;;6.57;;
17606;SDS011;8922;52.240;20.980;2022-08-16T12:21:44;12.55;;;6.88;;
17606;SDS011;8922;52.240;20.980;2022-08-16T12:24:12;8.40;;;6.82;;
17606;SDS011;8922;52.240;20.980;2022-08-16T12:26:38;9.57;;;6.65;;
17606;SDS011;8922;52.240;20.980;2022-08-16T12:29:05;8.27;;;7.53;;
17606;SDS011;8922;52.240;20.980;2022-08-16T12:31:32;16.15;;;6.93;;
17606;SDS011;8922;52.240;20.980;2022-08-16T12:34:01;11.50;;;7.00;;
17606;SDS011;8922;52.240;20.980;2022-08-16T12:36:31;9.10;;;6.95;;
17606;SDS011;8922;52.240;20.980;2022-08-16T12:38:59;7.57;;;6.93;;
17606;SDS011;8922;52.240;20.980;2022-08-16T12:41:26;8.57;;;7.68;;
17606;SDS011;8922;52.240;20.980;2022-08-16T12:43:53;10.90;;;7.13;;
17606;SDS011;8922;52.240;20.980;2022-08-16T12:46:20;8.38;;;7.55;;
17606;SDS011;8922;52.240;20.980;2022-08-16T12:48:47;9.85;;;8.77;;
17606;SDS011;8922;52.240;20.980;2022-08-16T12:51:23;13.07;;;8.77;;
17606;SDS011;8922;52.240;20.980;2022-08-16T12:53:54;9.80;;;8.63;;
17606;SDS011;8922;52.240;20.980;2022-08-16T12:56:23;9.57;;;8.65;;
17606;SDS011;8922;52.240;20.980;2022-08-16T12:58:51;10.43;;;9.45;;
17606;SDS011;8922;52.240;20.980;2022-08-16T13:01:20;11.82;;;9.45;;
17606;SDS011;8922;52.240;20.980;2022-08-16T13:03:48;10.18;;;9.25;;
17606;SDS011;8922;52.240;20.980;2022-08-16T13:06:16;11.15;;;9.15;;
17606;SDS011;8922;52.240;20.980;2022-08-16T13:08:44;10.75;;;9.52;;
17606;SDS011;8922;52.240;20.980;2022-08-16T13:11:10;13.95;;;9.55;;
17606;SDS011;8922;52.240;20.980;2022-08-16T13:13:38;11.40;;;8.70;;
17606;SDS011;8922;52.240;20.980;2022-08-16T13:16:05;10.57;;;8.52;;
17606;SDS011;8922;52.240;20.980;2022-08-16T13:18:32;9.65;;;8.43;;
17606;SDS011;8922;52.240;20.980;2022-08-16T13:21:00;9.57;;;7.55;;
17606;SDS011;8922;52.240;20.980;2022-08-16T13:23:27;10.50;;;6.80;;
17606;SDS011;8922;52.240;20.980;2022-08-16T13:25:55;9.68;;;5.72;;
17606;SDS011;8922;52.240;20.980;2022-08-16T13:28:22;6.60;;;5.50;;
17606;SDS011;8922;52.240;20.980;2022-08-16T13:30:49;8.73;;;6.20;;
17606;SDS011;8922;52.240;20.980;2022-08-16T13:33:19;9.48;;;6.40;;
17606;SDS011;8922;52.240;20.980;2022-08-16T13:35:49;7.00;;;6.15;;
17606;SDS011;8922;52.240;20.980;2022-08-16T13:38:17;7.20;;;4.55;;
17606;SDS011;8922;52.240;20.980;2022-08-16T13:40:44;11.63;;;5.90;;
17606;SDS011;8922;52.240;20.980;2022-08-16T13:43:13;6.45;;;5.47;;
17606;SDS011;8922;52.240;20.980;2022-08-16T13:45:40;6.60;;;5.25;;
17606;SDS011;8922;52.240;20.980;2022-08-16T13:48:08;7.65;;;4.47;;
17606;SDS011;8922;52.240;20.980;2022-08-16T13:50:35;6.18;;;4.18;;
17606;SDS011;8922;52.240;20.980;2022-08-16T13:53:02;5.22;;;4.07;;
17606;SDS011;8922;52.240;20.980;2022-08-16T13:55:29;8.10;;;4.38;;
17606;SDS011;8922;52.240;20.980;2022-08-16T13:57:56;10.15;;;4.32;;
17606;SDS011;8922;52.240;20.980;2022-08-16T14:00:24;6.20;;;3.90;;
17606;SDS011;8922;52.240;20.980;2022-08-16T14:02:51;7.32;;;4.18;;
17606;SDS011;8922;52.240;20.980;2022-08-16T14:05:18;6.90;;;4.25;;
17606;SDS011;8922;52.240;20.980;2022-08-16T14:07:45;7.22;;;4.15;;
17606;SDS011;8922;52.240;20.980;2022-08-16T14:10:12;5.18;;;4.55;;
17606;SDS011;8922;52.240;20.980;2022-08-16T14:12:39;7.47;;;4.93;;
17606;SDS011;8922;52.240;20.980;2022-08-16T14:15:07;5.80;;;4.50;;
17606;SDS011;8922;52.240;20.980;2022-08-16T14:17:38;4.68;;;4.10;;
17606;SDS011;8922;52.240;20.980;2022-08-16T14:20:05;5.85;;;4.65;;
17606;SDS011;8922;52.240;20.980;2022-08-16T14:22:34;5.93;;;4.47;;
17606;SDS011;8922;52.240;20.980;2022-08-16T14:25:03;8.88;;;4.47;;
17606;SDS011;8922;52.240;20.980;2022-08-16T14:27:32;8.65;;;4.60;;
17606;SDS011;8922;52.240;20.980;2022-08-16T14:30:00;7.68;;;4.72;;
17606;SDS011;8922;52.240;20.980;2022-08-16T14:32:27;4.90;;;4.43;;
17606;SDS011;8922;52.240;20.980;2022-08-16T14:34:57;6.85;;;4.78;;
17606;SDS011;8922;52.240;20.980;2022-08-16T14:37:25;8.05;;;5.63;;
17606;SDS011;8922;52.240;20.980;2022-08-16T14:39:51;7.30;;;4.85;;
17606;SDS011;8922;52.240;20.980;2022-08-16T14:42:19;7.13;;;5.25;;
17606;SDS011;8922;52.240;20.980;2022-08-16T14:44:48;6.05;;;5.10;;